Lobo Marinho — CQTW — position and weather

sailwx.info

Track history (hours):
 
Tides and Currents Weather Stations Pressure Air Temp Water Temp Dewpoint Dewpoint Depression Visibility Wind Speed Wind Dir Waves Ship Positions

Lobo Marinho

Last reported at 2017-Aug-25 20:16 UTC. Time now 2017-Sep-19 15:31 UTC.
Position N 33°02' W 016°20'.
Warning: this ship's position is 24 days out of date.

Length 112 m; draft 4.8 m.

Type: Passenger vessel. MMSI: 255997000.

Date/timePositionNaut miles runAvg speedWind from/ knotsBaromVisibWave heightAir tempDewpointWater temp
2017-Aug-25 20:16N 33°02' W 016°20'1018.5
2017-Aug-25 19:44N 32°54' W 016°27'418.2
2017-Aug-25 19:30N 32°51' W 016°30'917.9
2017-Aug-25 19:01N 32°45' W 016°38'4 0.5
2017-Aug-25 11:41N 32°48' W 016°35'418.4
2017-Aug-25 11:29N 32°50' W 016°32'1218.4
2017-Aug-25 10:48N 32°60' W 016°22'35 2.6
2017-Aug-24 21:19N 32°39' W 016°54'0 0.0
2017-Aug-24 00:58N 32°38' W 016°55'0 0.0
2017-Aug-23 04:06N 32°38' W 016°55'0 0.0
2017-Aug-23 03:57N 32°38' W 016°55'0 0.0
2017-Aug-23 02:51N 32°38' W 016°55'39 2.6
2017-Aug-22 11:25N 33°04' W 016°19'38 9.1
2017-Aug-22 07:11N 32°38' W 016°53'2 8.6
2017-Aug-22 07:00N 32°38' W 016°55'0 0.0
2017-Aug-22 05:32N 32°38' W 016°55'0 0.0
2017-Aug-22 05:14N 32°38' W 016°55'0 0.0
2017-Aug-21 22:26N 32°39' W 016°55'3716.5
2017-Aug-21 20:11N 33°02' W 016°21'2 2.3
2017-Aug-21 19:08N 33°04' W 016°19'0 0.0
2017-Aug-21 19:00N 33°04' W 016°19'2816.3
2017-Aug-21 17:16N 32°42' W 016°41'517.9
2017-Aug-21 17:00N 32°40' W 016°46'8 4.6
2017-Aug-21 15:21N 32°39' W 016°55'39 6.8
2017-Aug-21 09:37N 33°04' W 016°19'4 8.3
2017-Aug-21 09:08N 33°00' W 016°22'618.3
2017-Aug-21 08:48N 32°55' W 016°26'718.3
2017-Aug-21 08:24N 32°50' W 016°32'1518.0
2017-Aug-21 07:36N 32°40' W 016°45'218.6
2017-Aug-21 07:29N 32°39' W 016°47'714.5
2017-Aug-21 07:00N 32°38' W 016°55'0 0.0
2017-Aug-21 06:20N 32°38' W 016°55'5 0.5
2017-Aug-20 21:03N 32°38' W 016°50'119.2
2017-Aug-20 21:00N 32°38' W 016°48'5 0.3
2017-Aug-20 01:06N 32°38' W 016°55'0 0.0
2017-Aug-20 00:51N 32°38' W 016°55'0 0.0
2017-Aug-19 00:08N 32°38' W 016°55'0 1.4
2017-Aug-18 23:59N 32°39' W 016°55'5 0.9
2017-Aug-18 18:24N 32°38' W 016°48'513.8
2017-Aug-18 18:01N 32°38' W 016°55'0 0.0
2017-Aug-18 15:33N 32°38' W 016°55'0 0.0
2017-Aug-18 13:04N 32°38' W 016°55'0 1.1
2017-Aug-18 12:55N 32°39' W 016°55'0 0.0
2017-Aug-17 21:38N 32°38' W 016°55'0 2.2
2017-Aug-17 21:24N 32°39' W 016°54'815.4
2017-Aug-17 20:51N 32°40' W 016°44'8 0.6
2017-Aug-17 07:06N 32°39' W 016°54'  
Track history (hours):
 
Tides and Currents Weather Stations Pressure Air Temp Water Temp Dewpoint Dewpoint Depression Visibility Wind Speed Wind Dir Waves Ship Positions

Lobo Marinho

Last reported at 2017-Aug-25 20:16 UTC. Time now 2017-Sep-19 15:31 UTC.
Position N 33°02' W 016°20'.
Warning: this ship's position is 24 days out of date.

Length 112 m; draft 4.8 m.

Type: Passenger vessel. MMSI: 255997000.

Date/timePositionNaut miles runAvg speedWind from/ knotsBaromVisibWave heightAir tempDewpointWater temp
2017-Aug-25 20:16N 33°02' W 016°20'1018.5
2017-Aug-25 19:44N 32°54' W 016°27'418.2
2017-Aug-25 19:30N 32°51' W 016°30'917.9
2017-Aug-25 19:01N 32°45' W 016°38'4 0.5
2017-Aug-25 11:41N 32°48' W 016°35'418.4
2017-Aug-25 11:29N 32°50' W 016°32'1218.4
2017-Aug-25 10:48N 32°60' W 016°22'35 2.6
2017-Aug-24 21:19N 32°39' W 016°54'0 0.0
2017-Aug-24 00:58N 32°38' W 016°55'0 0.0
2017-Aug-23 04:06N 32°38' W 016°55'0 0.0
2017-Aug-23 03:57N 32°38' W 016°55'0 0.0
2017-Aug-23 02:51N 32°38' W 016°55'39 2.6
2017-Aug-22 11:25N 33°04' W 016°19'38 9.1
2017-Aug-22 07:11N 32°38' W 016°53'2 8.6
2017-Aug-22 07:00N 32°38' W 016°55'0 0.0
2017-Aug-22 05:32N 32°38' W 016°55'0 0.0
2017-Aug-22 05:14N 32°38' W 016°55'0 0.0
2017-Aug-21 22:26N 32°39' W 016°55'3716.5
2017-Aug-21 20:11N 33°02' W 016°21'2 2.3
2017-Aug-21 19:08N 33°04' W 016°19'0 0.0
2017-Aug-21 19:00N 33°04' W 016°19'2816.3
2017-Aug-21 17:16N 32°42' W 016°41'517.9
2017-Aug-21 17:00N 32°40' W 016°46'8 4.6
2017-Aug-21 15:21N 32°39' W 016°55'39 6.8
2017-Aug-21 09:37N 33°04' W 016°19'4 8.3
2017-Aug-21 09:08N 33°00' W 016°22'618.3
2017-Aug-21 08:48N 32°55' W 016°26'718.3
2017-Aug-21 08:24N 32°50' W 016°32'1518.0
2017-Aug-21 07:36N 32°40' W 016°45'218.6
2017-Aug-21 07:29N 32°39' W 016°47'714.5
2017-Aug-21 07:00N 32°38' W 016°55'0 0.0
2017-Aug-21 06:20N 32°38' W 016°55'5 0.5
2017-Aug-20 21:03N 32°38' W 016°50'119.2
2017-Aug-20 21:00N 32°38' W 016°48'5 0.3
2017-Aug-20 01:06N 32°38' W 016°55'0 0.0
2017-Aug-20 00:51N 32°38' W 016°55'0 0.0
2017-Aug-19 00:08N 32°38' W 016°55'0 1.4
2017-Aug-18 23:59N 32°39' W 016°55'5 0.9
2017-Aug-18 18:24N 32°38' W 016°48'513.8
2017-Aug-18 18:01N 32°38' W 016°55'0 0.0
2017-Aug-18 15:33N 32°38' W 016°55'0 0.0
2017-Aug-18 13:04N 32°38' W 016°55'0 1.1
2017-Aug-18 12:55N 32°39' W 016°55'0 0.0
2017-Aug-17 21:38N 32°38' W 016°55'0 2.2
2017-Aug-17 21:24N 32°39' W 016°54'815.4
2017-Aug-17 20:51N 32°40' W 016°44'8 0.6
2017-Aug-17 07:06N 32°39' W 016°54'  

Dump ship's entire track history